sensor_id;sensor_type;location;lat;lon;timestamp;temperature;humidity
70550;DHT22;58101;48.658;2.328;2023-09-30T00:01:55;14.10;99.90
70550;DHT22;58101;48.658;2.328;2023-09-30T00:04:20;14.10;99.90
70550;DHT22;58101;48.658;2.328;2023-09-30T00:06:46;14.20;99.90
70550;DHT22;58101;48.658;2.328;2023-09-30T00:09:12;14.00;99.90
70550;DHT22;58101;48.658;2.328;2023-09-30T00:11:38;14.00;99.90
70550;DHT22;58101;48.658;2.328;2023-09-30T00:14:04;14.00;99.90
70550;DHT22;58101;48.658;2.328;2023-09-30T00:16:30;14.00;99.90
70550;DHT22;58101;48.658;2.328;2023-09-30T00:18:56;13.90;99.90
70550;DHT22;58101;48.658;2.328;2023-09-30T00:21:24;14.00;99.90
70550;DHT22;58101;48.658;2.328;2023-09-30T00:23:49;13.90;99.90
70550;DHT22;58101;48.658;2.328;2023-09-30T00:26:15;13.90;99.90
70550;DHT22;58101;48.658;2.328;2023-09-30T00:28:41;13.90;99.90
70550;DHT22;58101;48.658;2.328;2023-09-30T00:31:07;13.90;99.90
70550;DHT22;58101;48.658;2.328;2023-09-30T00:33:36;13.80;99.90
70550;DHT22;58101;48.658;2.328;2023-09-30T00:36:09;13.90;99.90
70550;DHT22;58101;48.658;2.328;2023-09-30T00:38:36;13.80;99.90
70550;DHT22;58101;48.658;2.328;2023-09-30T00:41:03;13.90;99.90
70550;DHT22;58101;48.658;2.328;2023-09-30T00:43:28;13.80;99.90
70550;DHT22;58101;48.658;2.328;2023-09-30T00:46:06;13.80;99.90
70550;DHT22;58101;48.658;2.328;2023-09-30T00:48:33;13.80;99.90
70550;DHT22;58101;48.658;2.328;2023-09-30T00:50:59;13.70;99.90
70550;DHT22;58101;48.658;2.328;2023-09-30T00:53:25;13.70;99.90
70550;DHT22;58101;48.658;2.328;2023-09-30T00:55:51;13.70;99.90
70550;DHT22;58101;48.658;2.328;2023-09-30T00:58:17;13.70;99.90
70550;DHT22;58101;48.658;2.328;2023-09-30T01:00:43;13.60;99.90
70550;DHT22;58101;48.658;2.328;2023-09-30T01:03:09;13.60;99.90
70550;DHT22;58101;48.658;2.328;2023-09-30T01:05:36;13.50;99.90
70550;DHT22;58101;48.658;2.328;2023-09-30T01:08:02;13.60;99.90
70550;DHT22;58101;48.658;2.328;2023-09-30T01:10:28;13.50;99.90
70550;DHT22;58101;48.658;2.328;2023-09-30T01:12:54;13.60;99.90
70550;DHT22;58101;48.658;2.328;2023-09-30T01:15:19;13.50;99.90
70550;DHT22;58101;48.658;2.328;2023-09-30T01:17:45;13.60;99.90
70550;DHT22;58101;48.658;2.328;2023-09-30T01:20:12;13.60;99.90
70550;DHT22;58101;48.658;2.328;2023-09-30T01:22:42;13.50;99.90
70550;DHT22;58101;48.658;2.328;2023-09-30T01:25:10;13.50;99.90
70550;DHT22;58101;48.658;2.328;2023-09-30T01:27:36;13.50;99.90
70550;DHT22;58101;48.658;2.328;2023-09-30T01:30:02;13.50;99.90
70550;DHT22;58101;48.658;2.328;2023-09-30T01:32:28;13.40;99.90
70550;DHT22;58101;48.658;2.328;2023-09-30T01:34:53;13.40;99.90
70550;DHT22;58101;48.658;2.328;2023-09-30T01:37:19;13.40;99.90
70550;DHT22;58101;48.658;2.328;2023-09-30T01:39:45;13.30;99.90
70550;DHT22;58101;48.658;2.328;2023-09-30T01:42:11;13.30;99.90
70550;DHT22;58101;48.658;2.328;2023-09-30T01:44:37;13.30;99.90
70550;DHT22;58101;48.658;2.328;2023-09-30T01:47:02;13.30;99.90
70550;DHT22;58101;48.658;2.328;2023-09-30T01:49:28;13.30;99.90
70550;DHT22;58101;48.658;2.328;2023-09-30T01:51:53;13.20;99.90
70550;DHT22;58101;48.658;2.328;2023-09-30T01:54:19;13.30;99.90
70550;DHT22;58101;48.658;2.328;2023-09-30T01:56:45;13.20;99.90
70550;DHT22;58101;48.658;2.328;2023-09-30T01:59:10;13.20;99.90
70550;DHT22;58101;48.658;2.328;2023-09-30T02:01:36;13.10;99.90
70550;DHT22;58101;48.658;2.328;2023-09-30T02:04:02;13.10;99.90
70550;DHT22;58101;48.658;2.328;2023-09-30T02:06:28;13.10;99.90
70550;DHT22;58101;48.658;2.328;2023-09-30T02:08:53;13.00;99.90
70550;DHT22;58101;48.658;2.328;2023-09-30T02:11:19;13.10;99.90
70550;DHT22;58101;48.658;2.328;2023-09-30T02:13:44;13.10;99.90
70550;DHT22;58101;48.658;2.328;2023-09-30T02:16:13;13.00;99.90
70550;DHT22;58101;48.658;2.328;2023-09-30T02:18:40;13.00;99.90
70550;DHT22;58101;48.658;2.328;2023-09-30T02:21:10;13.00;99.90
70550;DHT22;58101;48.658;2.328;2023-09-30T02:23:36;13.00;99.90
70550;DHT22;58101;48.658;2.328;2023-09-30T02:26:02;13.00;99.90
70550;DHT22;58101;48.658;2.328;2023-09-30T02:28:28;12.90;99.90
70550;DHT22;58101;48.658;2.328;2023-09-30T02:30:54;13.00;99.90
70550;DHT22;58101;48.658;2.328;2023-09-30T02:33:20;12.90;99.90
70550;DHT22;58101;48.658;2.328;2023-09-30T02:35:45;12.90;99.90
70550;DHT22;58101;48.658;2.328;2023-09-30T02:38:12;12.90;99.90
70550;DHT22;58101;48.658;2.328;2023-09-30T02:40:39;12.80;99.90
70550;DHT22;58101;48.658;2.328;2023-09-30T02:43:05;12.90;99.90
70550;DHT22;58101;48.658;2.328;2023-09-30T02:45:31;12.80;99.90
70550;DHT22;58101;48.658;2.328;2023-09-30T02:47:57;12.80;99.90
70550;DHT22;58101;48.658;2.328;2023-09-30T02:50:22;12.80;99.90
70550;DHT22;58101;48.658;2.328;2023-09-30T02:52:48;12.80;99.90
70550;DHT22;58101;48.658;2.328;2023-09-30T02:55:15;12.80;99.90
70550;DHT22;58101;48.658;2.328;2023-09-30T02:57:40;12.70;99.90
70550;DHT22;58101;48.658;2.328;2023-09-30T03:00:08;12.70;99.90
70550;DHT22;58101;48.658;2.328;2023-09-30T03:02:50;12.70;99.90
70550;DHT22;58101;48.658;2.328;2023-09-30T03:05:17;12.70;99.90
70550;DHT22;58101;48.658;2.328;2023-09-30T03:07:43;12.70;99.90
70550;DHT22;58101;48.658;2.328;2023-09-30T03:10:09;12.60;99.90
70550;DHT22;58101;48.658;2.328;2023-09-30T03:12:35;12.60;99.90
70550;DHT22;58101;48.658;2.328;2023-09-30T03:15:01;12.60;99.90
70550;DHT22;58101;48.658;2.328;2023-09-30T03:17:30;12.60;99.90
70550;DHT22;58101;48.658;2.328;2023-09-30T03:19:56;12.70;99.90
70550;DHT22;58101;48.658;2.328;2023-09-30T03:22:22;12.60;99.90
70550;DHT22;58101;48.658;2.328;2023-09-30T03:24:48;12.60;99.90
70550;DHT22;58101;48.658;2.328;2023-09-30T03:27:14;12.60;99.90
70550;DHT22;58101;48.658;2.328;2023-09-30T03:29:40;12.60;99.90
70550;DHT22;58101;48.658;2.328;2023-09-30T03:32:06;12.50;99.90
70550;DHT22;58101;48.658;2.328;2023-09-30T03:34:34;12.60;99.90
70550;DHT22;58101;48.658;2.328;2023-09-30T03:37:01;12.60;99.90
70550;DHT22;58101;48.658;2.328;2023-09-30T03:39:27;12.70;99.90
70550;DHT22;58101;48.658;2.328;2023-09-30T03:41:56;12.60;99.90
70550;DHT22;58101;48.658;2.328;2023-09-30T03:44:22;12.60;99.90
70550;DHT22;58101;48.658;2.328;2023-09-30T03:46:50;12.70;99.90
70550;DHT22;58101;48.658;2.328;2023-09-30T03:49:16;12.70;99.90
70550;DHT22;58101;48.658;2.328;2023-09-30T03:51:41;12.60;99.90
70550;DHT22;58101;48.658;2.328;2023-09-30T03:54:07;12.60;99.90
70550;DHT22;58101;48.658;2.328;2023-09-30T03:56:34;12.60;99.90
70550;DHT22;58101;48.658;2.328;2023-09-30T03:58:59;12.60;99.90
70550;DHT22;58101;48.658;2.328;2023-09-30T04:01:25;12.70;99.90
70550;DHT22;58101;48.658;2.328;2023-09-30T04:03:52;12.70;99.90
70550;DHT22;58101;48.658;2.328;2023-09-30T04:06:20;12.80;99.90
70550;DHT22;58101;48.658;2.328;2023-09-30T04:08:47;13.00;99.90
70550;DHT22;58101;48.658;2.328;2023-09-30T04:11:12;12.90;99.90
70550;DHT22;58101;48.658;2.328;2023-09-30T04:13:44;12.80;99.90
70550;DHT22;58101;48.658;2.328;2023-09-30T04:16:38;12.80;99.90
70550;DHT22;58101;48.658;2.328;2023-09-30T04:19:04;12.70;99.90
70550;DHT22;58101;48.658;2.328;2023-09-30T04:21:30;12.70;99.90
70550;DHT22;58101;48.658;2.328;2023-09-30T04:23:59;12.70;99.90
70550;DHT22;58101;48.658;2.328;2023-09-30T04:26:25;12.60;99.90
70550;DHT22;58101;48.658;2.328;2023-09-30T04:28:51;12.60;99.90
70550;DHT22;58101;48.658;2.328;2023-09-30T04:31:17;12.60;99.90
70550;DHT22;58101;48.658;2.328;2023-09-30T04:33:43;12.70;99.90
70550;DHT22;58101;48.658;2.328;2023-09-30T04:36:09;12.60;99.90
70550;DHT22;58101;48.658;2.328;2023-09-30T04:38:35;12.50;99.90
70550;DHT22;58101;48.658;2.328;2023-09-30T04:41:04;12.50;99.90
70550;DHT22;58101;48.658;2.328;2023-09-30T04:43:33;12.50;99.90
70550;DHT22;58101;48.658;2.328;2023-09-30T04:45:58;12.40;99.90
70550;DHT22;58101;48.658;2.328;2023-09-30T04:48:24;12.50;99.90
70550;DHT22;58101;48.658;2.328;2023-09-30T04:50:50;12.40;99.90
70550;DHT22;58101;48.658;2.328;2023-09-30T04:53:17;12.50;99.90
70550;DHT22;58101;48.658;2.328;2023-09-30T04:55:46;12.40;99.90
70550;DHT22;58101;48.658;2.328;2023-09-30T04:58:16;12.40;99.90
70550;DHT22;58101;48.658;2.328;2023-09-30T05:00:42;12.40;99.90
70550;DHT22;58101;48.658;2.328;2023-09-30T05:03:08;12.30;99.90
70550;DHT22;58101;48.658;2.328;2023-09-30T05:05:33;12.20;99.90
70550;DHT22;58101;48.658;2.328;2023-09-30T05:08:00;12.30;99.90
70550;DHT22;58101;48.658;2.328;2023-09-30T05:10:26;12.30;99.90
70550;DHT22;58101;48.658;2.328;2023-09-30T05:12:52;12.30;99.90
70550;DHT22;58101;48.658;2.328;2023-09-30T05:15:20;12.30;99.90
70550;DHT22;58101;48.658;2.328;2023-09-30T05:17:47;12.20;99.90
70550;DHT22;58101;48.658;2.328;2023-09-30T05:20:13;12.20;99.90
70550;DHT22;58101;48.658;2.328;2023-09-30T05:22:42;12.20;99.90
70550;DHT22;58101;48.658;2.328;2023-09-30T05:25:11;12.30;99.90
70550;DHT22;58101;48.658;2.328;2023-09-30T05:27:37;12.30;99.90
70550;DHT22;58101;48.658;2.328;2023-09-30T05:30:03;12.30;99.90
70550;DHT22;58101;48.658;2.328;2023-09-30T05:32:31;12.30;99.90
70550;DHT22;58101;48.658;2.328;2023-09-30T05:34:57;12.40;99.90
70550;DHT22;58101;48.658;2.328;2023-09-30T05:37:24;12.30;99.90
70550;DHT22;58101;48.658;2.328;2023-09-30T05:39:50;12.30;99.90
70550;DHT22;58101;48.658;2.328;2023-09-30T05:42:19;12.30;99.90
70550;DHT22;58101;48.658;2.328;2023-09-30T05:44:45;12.30;99.90
70550;DHT22;58101;48.658;2.328;2023-09-30T05:47:11;12.10;99.90
70550;DHT22;58101;48.658;2.328;2023-09-30T05:49:37;12.20;99.90
70550;DHT22;58101;48.658;2.328;2023-09-30T05:52:03;12.20;99.90
70550;DHT22;58101;48.658;2.328;2023-09-30T05:54:29;12.20;99.90
70550;DHT22;58101;48.658;2.328;2023-09-30T05:56:55;12.20;99.90
70550;DHT22;58101;48.658;2.328;2023-09-30T05:59:21;12.20;99.90
70550;DHT22;58101;48.658;2.328;2023-09-30T06:01:47;12.30;99.90
70550;DHT22;58101;48.658;2.328;2023-09-30T06:04:12;12.40;99.90
70550;DHT22;58101;48.658;2.328;2023-09-30T06:06:38;12.50;99.90
70550;DHT22;58101;48.658;2.328;2023-09-30T06:09:04;12.60;99.90
70550;DHT22;58101;48.658;2.328;2023-09-30T06:11:33;12.60;99.90
70550;DHT22;58101;48.658;2.328;2023-09-30T06:13:59;12.60;99.90
70550;DHT22;58101;48.658;2.328;2023-09-30T06:16:26;12.70;99.90
70550;DHT22;58101;48.658;2.328;2023-09-30T06:18:52;12.80;99.90
70550;DHT22;58101;48.658;2.328;2023-09-30T06:21:19;12.80;99.90
70550;DHT22;58101;48.658;2.328;2023-09-30T06:23:49;13.00;99.90
70550;DHT22;58101;48.658;2.328;2023-09-30T06:26:17;13.00;99.90
70550;DHT22;58101;48.658;2.328;2023-09-30T06:28:43;13.00;99.90
70550;DHT22;58101;48.658;2.328;2023-09-30T06:31:10;13.10;99.90
70550;DHT22;58101;48.658;2.328;2023-09-30T06:33:36;13.10;99.90
70550;DHT22;58101;48.658;2.328;2023-09-30T06:36:11;13.10;99.90
70550;DHT22;58101;48.658;2.328;2023-09-30T06:38:37;13.20;99.90
70550;DHT22;58101;48.658;2.328;2023-09-30T06:41:03;13.30;99.90
70550;DHT22;58101;48.658;2.328;2023-09-30T06:43:29;13.40;99.90
70550;DHT22;58101;48.658;2.328;2023-09-30T06:45:55;13.50;99.90
70550;DHT22;58101;48.658;2.328;2023-09-30T06:48:21;13.60;99.90
70550;DHT22;58101;48.658;2.328;2023-09-30T06:50:48;13.60;99.90
70550;DHT22;58101;48.658;2.328;2023-09-30T06:53:15;13.70;99.90
70550;DHT22;58101;48.658;2.328;2023-09-30T06:55:42;13.70;99.90
70550;DHT22;58101;48.658;2.328;2023-09-30T06:58:08;13.80;99.90
70550;DHT22;58101;48.658;2.328;2023-09-30T07:00:36;13.90;99.90
70550;DHT22;58101;48.658;2.328;2023-09-30T07:03:02;14.10;99.90
70550;DHT22;58101;48.658;2.328;2023-09-30T07:05:29;14.00;99.90
70550;DHT22;58101;48.658;2.328;2023-09-30T07:07:54;14.20;99.90
70550;DHT22;58101;48.658;2.328;2023-09-30T07:10:20;14.20;99.90
70550;DHT22;58101;48.658;2.328;2023-09-30T07:12:46;14.30;99.90
70550;DHT22;58101;48.658;2.328;2023-09-30T07:15:11;14.50;99.90
70550;DHT22;58101;48.658;2.328;2023-09-30T07:17:39;14.60;99.90
70550;DHT22;58101;48.658;2.328;2023-09-30T07:20:06;14.70;99.90
70550;DHT22;58101;48.658;2.328;2023-09-30T07:22:33;14.80;99.90
70550;DHT22;58101;48.658;2.328;2023-09-30T07:25:00;14.90;99.90
70550;DHT22;58101;48.658;2.328;2023-09-30T07:27:26;14.90;99.90
70550;DHT22;58101;48.658;2.328;2023-09-30T07:29:51;15.10;99.90
70550;DHT22;58101;48.658;2.328;2023-09-30T07:32:17;15.10;99.90
70550;DHT22;58101;48.658;2.328;2023-09-30T07:34:42;15.20;99.90
70550;DHT22;58101;48.658;2.328;2023-09-30T07:37:09;15.30;99.90
70550;DHT22;58101;48.658;2.328;2023-09-30T07:39:35;15.40;99.90
70550;DHT22;58101;48.658;2.328;2023-09-30T07:42:01;15.60;99.90
70550;DHT22;58101;48.658;2.328;2023-09-30T07:44:49;15.80;99.90
70550;DHT22;58101;48.658;2.328;2023-09-30T07:47:14;16.00;99.90
70550;DHT22;58101;48.658;2.328;2023-09-30T07:49:43;16.20;99.90
70550;DHT22;58101;48.658;2.328;2023-09-30T07:52:09;16.40;99.90
70550;DHT22;58101;48.658;2.328;2023-09-30T07:54:36;16.60;99.90
70550;DHT22;58101;48.658;2.328;2023-09-30T07:57:02;16.80;99.10
70550;DHT22;58101;48.658;2.328;2023-09-30T07:59:27;16.90;98.10
70550;DHT22;58101;48.658;2.328;2023-09-30T08:01:53;17.10;98.20
70550;DHT22;58101;48.658;2.328;2023-09-30T08:04:19;17.40;97.20
70550;DHT22;58101;48.658;2.328;2023-09-30T08:06:45;17.80;96.70
70550;DHT22;58101;48.658;2.328;2023-09-30T08:09:14;18.30;95.40
70550;DHT22;58101;48.658;2.328;2023-09-30T08:11:42;18.90;93.20
70550;DHT22;58101;48.658;2.328;2023-09-30T08:14:14;19.20;90.00
70550;DHT22;58101;48.658;2.328;2023-09-30T08:20:02;19.10;87.00
70550;DHT22;58101;48.658;2.328;2023-09-30T08:22:42;18.80;86.70
70550;DHT22;58101;48.658;2.328;2023-09-30T08:25:08;18.60;89.10
70550;DHT22;58101;48.658;2.328;2023-09-30T08:31:34;18.20;91.20
70550;DHT22;58101;48.658;2.328;2023-09-30T08:37:21;18.30;91.50
70550;DHT22;58101;48.658;2.328;2023-09-30T08:40:08;18.50;91.20
70550;DHT22;58101;48.658;2.328;2023-09-30T08:49:38;19.40;88.60
70550;DHT22;58101;48.658;2.328;2023-09-30T08:52:53;19.70;84.50
70550;DHT22;58101;48.658;2.328;2023-09-30T08:55:53;20.60;82.90
70550;DHT22;58101;48.658;2.328;2023-09-30T08:58:45;21.70;74.40
70550;DHT22;58101;48.658;2.328;2023-09-30T09:01:44;22.60;68.50
70550;DHT22;58101;48.658;2.328;2023-09-30T09:04:24;23.50;64.40
70550;DHT22;58101;48.658;2.328;2023-09-30T09:07:06;24.10;60.90
70550;DHT22;58101;48.658;2.328;2023-09-30T09:09:31;24.60;56.90
70550;DHT22;58101;48.658;2.328;2023-09-30T09:11:57;25.00;56.00
70550;DHT22;58101;48.658;2.328;2023-09-30T09:14:40;25.50;52.00
70550;DHT22;58101;48.658;2.328;2023-09-30T09:17:13;25.80;51.50
70550;DHT22;58101;48.658;2.328;2023-09-30T09:20:07;26.10;49.70
70550;DHT22;58101;48.658;2.328;2023-09-30T09:23:01;26.40;48.70
70550;DHT22;58101;48.658;2.328;2023-09-30T09:25:27;26.80;48.70
70550;DHT22;58101;48.658;2.328;2023-09-30T09:27:54;27.10;48.70
70550;DHT22;58101;48.658;2.328;2023-09-30T09:30:26;27.50;47.70
70550;DHT22;58101;48.658;2.328;2023-09-30T09:32:53;27.90;46.40
70550;DHT22;58101;48.658;2.328;2023-09-30T09:35:22;28.40;44.60
70550;DHT22;58101;48.658;2.328;2023-09-30T09:38:26;28.60;43.10
70550;DHT22;58101;48.658;2.328;2023-09-30T09:41:26;29.00;41.50
70550;DHT22;58101;48.658;2.328;2023-09-30T09:47:23;29.30;40.80
70550;DHT22;58101;48.658;2.328;2023-09-30T09:49:50;29.60;39.90
70550;DHT22;58101;48.658;2.328;2023-09-30T09:52:17;29.80;40.00
70550;DHT22;58101;48.658;2.328;2023-09-30T09:54:44;30.10;39.60
70550;DHT22;58101;48.658;2.328;2023-09-30T09:57:12;30.40;38.90
70550;DHT22;58101;48.658;2.328;2023-09-30T09:59:39;30.80;38.20
70550;DHT22;58101;48.658;2.328;2023-09-30T10:02:10;31.00;36.60
70550;DHT22;58101;48.658;2.328;2023-09-30T10:04:37;31.10;36.20
70550;DHT22;58101;48.658;2.328;2023-09-30T10:07:26;31.20;36.10
70550;DHT22;58101;48.658;2.328;2023-09-30T10:09:56;31.10;35.60
70550;DHT22;58101;48.658;2.328;2023-09-30T10:12:45;30.00;36.90
70550;DHT22;58101;48.658;2.328;2023-09-30T10:18:02;28.40;41.10
70550;DHT22;58101;48.658;2.328;2023-09-30T10:20:39;28.40;41.00
70550;DHT22;58101;48.658;2.328;2023-09-30T10:23:25;28.20;41.10
70550;DHT22;58101;48.658;2.328;2023-09-30T10:31:50;28.80;40.40
70550;DHT22;58101;48.658;2.328;2023-09-30T10:34:22;29.70;40.00
70550;DHT22;58101;48.658;2.328;2023-09-30T10:36:49;30.40;37.80
70550;DHT22;58101;48.658;2.328;2023-09-30T10:39:55;31.10;37.20
70550;DHT22;58101;48.658;2.328;2023-09-30T10:42:43;31.70;35.40
70550;DHT22;58101;48.658;2.328;2023-09-30T10:45:42;31.90;32.90
70550;DHT22;58101;48.658;2.328;2023-09-30T10:51:13;32.40;33.00
70550;DHT22;58101;48.658;2.328;2023-09-30T10:53:44;32.70;32.90
70550;DHT22;58101;48.658;2.328;2023-09-30T10:56:10;32.80;32.40
70550;DHT22;58101;48.658;2.328;2023-09-30T11:01:18;32.80;30.70
70550;DHT22;58101;48.658;2.328;2023-09-30T11:03:45;33.00;30.60
70550;DHT22;58101;48.658;2.328;2023-09-30T11:06:15;33.20;30.10
70550;DHT22;58101;48.658;2.328;2023-09-30T11:08:59;33.30;30.50
70550;DHT22;58101;48.658;2.328;2023-09-30T11:11:53;33.40;29.70
70550;DHT22;58101;48.658;2.328;2023-09-30T11:16:45;33.70;29.10
70550;DHT22;58101;48.658;2.328;2023-09-30T11:19:11;33.90;29.30
70550;DHT22;58101;48.658;2.328;2023-09-30T11:21:59;33.90;28.70
70550;DHT22;58101;48.658;2.328;2023-09-30T11:24:25;33.80;28.70
70550;DHT22;58101;48.658;2.328;2023-09-30T11:26:55;34.00;29.20
70550;DHT22;58101;48.658;2.328;2023-09-30T11:29:26;34.00;28.80
70550;DHT22;58101;48.658;2.328;2023-09-30T11:31:57;33.80;28.60
70550;DHT22;58101;48.658;2.328;2023-09-30T11:34:35;33.70;30.00
70550;DHT22;58101;48.658;2.328;2023-09-30T11:37:02;33.60;29.20
70550;DHT22;58101;48.658;2.328;2023-09-30T11:39:29;33.20;29.20
70550;DHT22;58101;48.658;2.328;2023-09-30T11:41:55;32.60;29.90
70550;DHT22;58101;48.658;2.328;2023-09-30T11:44:26;32.00;30.70
70550;DHT22;58101;48.658;2.328;2023-09-30T11:46:59;31.10;31.90
70550;DHT22;58101;48.658;2.328;2023-09-30T11:49:32;30.20;34.20
70550;DHT22;58101;48.658;2.328;2023-09-30T11:52:02;29.60;35.50
70550;DHT22;58101;48.658;2.328;2023-09-30T11:54:38;29.70;36.00
70550;DHT22;58101;48.658;2.328;2023-09-30T11:57:07;30.00;35.90
70550;DHT22;58101;48.658;2.328;2023-09-30T11:59:39;30.30;35.60
70550;DHT22;58101;48.658;2.328;2023-09-30T12:02:07;30.50;35.10
70550;DHT22;58101;48.658;2.328;2023-09-30T12:04:37;30.60;35.10
70550;DHT22;58101;48.658;2.328;2023-09-30T12:07:03;30.70;35.00
70550;DHT22;58101;48.658;2.328;2023-09-30T12:09:29;30.30;34.90
70550;DHT22;58101;48.658;2.328;2023-09-30T12:11:56;30.00;35.70
70550;DHT22;58101;48.658;2.328;2023-09-30T12:14:23;29.60;35.90
70550;DHT22;58101;48.658;2.328;2023-09-30T12:16:51;29.60;36.40
70550;DHT22;58101;48.658;2.328;2023-09-30T12:19:17;29.60;36.30
70550;DHT22;58101;48.658;2.328;2023-09-30T12:21:44;29.50;36.90
70550;DHT22;58101;48.658;2.328;2023-09-30T12:24:13;29.30;38.00
70550;DHT22;58101;48.658;2.328;2023-09-30T12:26:43;29.20;37.50
70550;DHT22;58101;48.658;2.328;2023-09-30T12:29:16;29.00;37.70
70550;DHT22;58101;48.658;2.328;2023-09-30T12:31:52;28.80;38.40
70550;DHT22;58101;48.658;2.328;2023-09-30T12:34:18;28.70;38.90
70550;DHT22;58101;48.658;2.328;2023-09-30T12:36:44;28.50;38.80
70550;DHT22;58101;48.658;2.328;2023-09-30T12:39:10;28.20;39.50
70550;DHT22;58101;48.658;2.328;2023-09-30T12:44:37;27.60;40.60
70550;DHT22;58101;48.658;2.328;2023-09-30T12:47:05;27.20;41.70
70550;DHT22;58101;48.658;2.328;2023-09-30T12:49:31;26.80;42.30
70550;DHT22;58101;48.658;2.328;2023-09-30T12:51:57;26.50;43.50
70550;DHT22;58101;48.658;2.328;2023-09-30T12:54:29;26.40;44.00
70550;DHT22;58101;48.658;2.328;2023-09-30T12:56:55;26.20;44.30
70550;DHT22;58101;48.658;2.328;2023-09-30T12:59:21;26.10;44.30
70550;DHT22;58101;48.658;2.328;2023-09-30T13:01:51;26.10;45.00
70550;DHT22;58101;48.658;2.328;2023-09-30T13:04:16;26.00;45.30
70550;DHT22;58101;48.658;2.328;2023-09-30T13:06:44;25.90;45.60
70550;DHT22;58101;48.658;2.328;2023-09-30T13:09:10;25.60;46.00
70550;DHT22;58101;48.658;2.328;2023-09-30T13:11:37;25.50;47.90
70550;DHT22;58101;48.658;2.328;2023-09-30T13:14:03;25.40;47.70
70550;DHT22;58101;48.658;2.328;2023-09-30T13:16:28;25.40;47.40
70550;DHT22;58101;48.658;2.328;2023-09-30T13:18:54;25.20;49.40
70550;DHT22;58101;48.658;2.328;2023-09-30T13:21:19;25.20;48.90
70550;DHT22;58101;48.658;2.328;2023-09-30T13:23:45;25.10;48.90
70550;DHT22;58101;48.658;2.328;2023-09-30T13:26:11;25.20;50.10
70550;DHT22;58101;48.658;2.328;2023-09-30T13:28:37;25.20;48.80
70550;DHT22;58101;48.658;2.328;2023-09-30T13:31:02;25.20;49.10
70550;DHT22;58101;48.658;2.328;2023-09-30T13:33:28;25.40;49.30
70550;DHT22;58101;48.658;2.328;2023-09-30T13:35:54;25.50;49.00
70550;DHT22;58101;48.658;2.328;2023-09-30T13:38:21;25.50;49.00
70550;DHT22;58101;48.658;2.328;2023-09-30T13:40:46;25.60;48.20
70550;DHT22;58101;48.658;2.328;2023-09-30T13:43:12;25.50;47.90
70550;DHT22;58101;48.658;2.328;2023-09-30T13:45:37;25.30;48.70
70550;DHT22;58101;48.658;2.328;2023-09-30T13:48:03;25.20;48.60
70550;DHT22;58101;48.658;2.328;2023-09-30T13:50:33;25.00;49.80
70550;DHT22;58101;48.658;2.328;2023-09-30T13:53:01;24.90;50.90
70550;DHT22;58101;48.658;2.328;2023-09-30T13:58:36;24.90;50.50
70550;DHT22;58101;48.658;2.328;2023-09-30T14:01:01;24.90;50.70
70550;DHT22;58101;48.658;2.328;2023-09-30T14:03:27;24.80;50.60
70550;DHT22;58101;48.658;2.328;2023-09-30T14:05:54;24.60;50.50
70550;DHT22;58101;48.658;2.328;2023-09-30T14:08:19;24.60;50.80
70550;DHT22;58101;48.658;2.328;2023-09-30T14:11:03;24.40;51.80
70550;DHT22;58101;48.658;2.328;2023-09-30T14:13:30;24.30;51.70
70550;DHT22;58101;48.658;2.328;2023-09-30T14:16:17;24.20;51.90
70550;DHT22;58101;48.658;2.328;2023-09-30T14:18:41;24.30;52.20
70550;DHT22;58101;48.658;2.328;2023-09-30T14:21:30;24.20;52.20
70550;DHT22;58101;48.658;2.328;2023-09-30T14:23:57;24.20;52.90
70550;DHT22;58101;48.658;2.328;2023-09-30T14:26:23;24.10;52.40
70550;DHT22;58101;48.658;2.328;2023-09-30T14:28:49;24.20;53.80
70550;DHT22;58101;48.658;2.328;2023-09-30T14:31:14;24.20;53.40
70550;DHT22;58101;48.658;2.328;2023-09-30T14:33:40;24.10;53.30
70550;DHT22;58101;48.658;2.328;2023-09-30T14:36:05;23.90;53.80
70550;DHT22;58101;48.658;2.328;2023-09-30T14:38:31;23.90;54.40
70550;DHT22;58101;48.658;2.328;2023-09-30T14:40:59;23.90;54.80
70550;DHT22;58101;48.658;2.328;2023-09-30T14:43:25;23.90;54.60
70550;DHT22;58101;48.658;2.328;2023-09-30T14:45:50;23.90;54.80
70550;DHT22;58101;48.658;2.328;2023-09-30T14:48:16;23.90;54.70
70550;DHT22;58101;48.658;2.328;2023-09-30T14:50:49;23.80;55.00
70550;DHT22;58101;48.658;2.328;2023-09-30T14:53:15;23.70;55.40
70550;DHT22;58101;48.658;2.328;2023-09-30T14:55:41;23.70;55.90
70550;DHT22;58101;48.658;2.328;2023-09-30T14:58:13;23.70;56.70
70550;DHT22;58101;48.658;2.328;2023-09-30T15:00:39;23.60;55.90
70550;DHT22;58101;48.658;2.328;2023-09-30T15:03:05;23.60;56.30
70550;DHT22;58101;48.658;2.328;2023-09-30T15:05:32;23.50;56.30
70550;DHT22;58101;48.658;2.328;2023-09-30T15:07:58;23.50;56.70
70550;DHT22;58101;48.658;2.328;2023-09-30T15:10:26;23.40;57.70
70550;DHT22;58101;48.658;2.328;2023-09-30T15:12:52;23.40;57.50
70550;DHT22;58101;48.658;2.328;2023-09-30T15:15:21;23.40;57.80
70550;DHT22;58101;48.658;2.328;2023-09-30T15:17:46;23.30;57.00
70550;DHT22;58101;48.658;2.328;2023-09-30T15:20:13;23.20;57.90
70550;DHT22;58101;48.658;2.328;2023-09-30T15:22:38;23.20;58.40
70550;DHT22;58101;48.658;2.328;2023-09-30T15:25:04;23.20;58.60
70550;DHT22;58101;48.658;2.328;2023-09-30T15:27:30;23.10;58.00
70550;DHT22;58101;48.658;2.328;2023-09-30T15:29:59;23.20;57.70
70550;DHT22;58101;48.658;2.328;2023-09-30T15:32:25;23.20;57.30
70550;DHT22;58101;48.658;2.328;2023-09-30T15:34:51;23.20;56.80
70550;DHT22;58101;48.658;2.328;2023-09-30T15:37:16;23.20;57.40
70550;DHT22;58101;48.658;2.328;2023-09-30T15:39:42;23.20;57.20
70550;DHT22;58101;48.658;2.328;2023-09-30T15:42:08;23.20;57.20
70550;DHT22;58101;48.658;2.328;2023-09-30T15:44:35;23.20;57.30
70550;DHT22;58101;48.658;2.328;2023-09-30T15:47:01;23.20;58.10
70550;DHT22;58101;48.658;2.328;2023-09-30T15:49:26;23.10;57.90
70550;DHT22;58101;48.658;2.328;2023-09-30T15:51:52;23.00;58.10
70550;DHT22;58101;48.658;2.328;2023-09-30T15:54:18;23.00;58.10
70550;DHT22;58101;48.658;2.328;2023-09-30T15:56:44;23.00;58.40
70550;DHT22;58101;48.658;2.328;2023-09-30T15:59:09;23.00;58.20
70550;DHT22;58101;48.658;2.328;2023-09-30T16:01:35;23.00;58.50
70550;DHT22;58101;48.658;2.328;2023-09-30T16:04:01;23.00;59.70
70550;DHT22;58101;48.658;2.328;2023-09-30T16:06:26;22.90;58.70
70550;DHT22;58101;48.658;2.328;2023-09-30T16:08:52;22.90;59.30
70550;DHT22;58101;48.658;2.328;2023-09-30T16:11:25;22.90;59.80
70550;DHT22;58101;48.658;2.328;2023-09-30T16:13:50;22.80;60.20
70550;DHT22;58101;48.658;2.328;2023-09-30T16:16:17;22.80;60.30
70550;DHT22;58101;48.658;2.328;2023-09-30T16:18:43;22.80;60.10
70550;DHT22;58101;48.658;2.328;2023-09-30T16:21:08;22.80;60.90
70550;DHT22;58101;48.658;2.328;2023-09-30T16:23:34;22.70;60.90